Weather at Kyauktu Airport

Public forecast

Using degrees Celsius for public forecast. Weather courtesy of forecast.io.

Closest aviation weather report (METAR) to Kyauktu Airport

Closest report is Mandalay International Airport, 104.6 nm (193.7 km) E. Retrieved 2020/09/28 00:30 UTC (19 minutes ago):

VYMD 280030Z 14005KT 6000 BKN020 27/24 Q1006NOSIG

Closest aviation forecast (TAF) to Kyauktu Airport

Closest forecast is Mandalay International Airport, 104.6 nm (193.7 km) E. Retrieved 2020-09-28 00:00 UTC (49 minutes ago):

TAF VYMD 272300Z 2800/2824 15010KT 7000 BKN020 BKN120 TEMPO 2800/2806 16010G18KT 6000 BKN018 FEW020CB BKN100